createdAt,value
2023-12-17T00:00:42.465Z,19.05
2023-12-17T00:03:18.640Z,17.85
2023-12-17T00:05:51.718Z,17.60
2023-12-17T00:08:21.888Z,17.35
2023-12-17T00:10:50.325Z,17.88
2023-12-17T00:13:18.239Z,17.40
2023-12-17T00:15:45.953Z,16.92
2023-12-17T00:18:13.858Z,15.88
2023-12-17T00:20:41.445Z,16.55
2023-12-17T00:23:08.576Z,16.30
2023-12-17T00:25:35.803Z,14.77
2023-12-17T00:28:03.234Z,13.60
2023-12-17T00:30:30.619Z,14.63
2023-12-17T00:32:57.862Z,14.50
2023-12-17T00:35:25.294Z,13.50
2023-12-17T00:37:52.326Z,13.70
2023-12-17T00:40:19.371Z,12.18
2023-12-17T00:42:46.470Z,12.65
2023-12-17T00:45:13.905Z,12.90
2023-12-17T00:47:41.293Z,11.80
2023-12-17T00:50:08.985Z,12.38
2023-12-17T00:52:36.182Z,11.95
2023-12-17T00:55:03.267Z,12.00
2023-12-17T00:57:30.436Z,12.75
2023-12-17T00:59:57.672Z,11.57
2023-12-17T01:02:24.717Z,11.20
2023-12-17T01:04:51.851Z,10.38
2023-12-17T01:07:18.974Z,10.63
2023-12-17T01:09:46.554Z,12.15
2023-12-17T01:12:13.736Z,10.98
2023-12-17T01:14:40.869Z,10.18
2023-12-17T01:17:08.499Z,10.13
2023-12-17T01:19:39.929Z,10.45
2023-12-17T01:22:07.147Z,10.88
2023-12-17T01:24:34.341Z,10.65
2023-12-17T01:27:01.588Z,10.00
2023-12-17T01:29:28.694Z,10.38
2023-12-17T01:31:56.095Z,9.90
2023-12-17T01:34:23.638Z,9.68
2023-12-17T01:36:51.098Z,10.63
2023-12-17T01:39:18.682Z,9.90
2023-12-17T01:41:46.421Z,10.30
2023-12-17T01:44:13.642Z,10.18
2023-12-17T01:46:42.058Z,10.95
2023-12-17T01:49:09.636Z,10.93
2023-12-17T01:51:38.282Z,10.40
2023-12-17T01:54:05.929Z,10.05
2023-12-17T01:56:33.645Z,9.77
2023-12-17T01:59:01.814Z,9.63
2023-12-17T02:01:29.383Z,10.45
2023-12-17T02:03:57.271Z,10.25
2023-12-17T02:06:24.522Z,9.13
2023-12-17T02:08:51.636Z,9.30
2023-12-17T02:11:18.741Z,9.07
2023-12-17T02:13:45.837Z,9.45
2023-12-17T02:16:14.665Z,9.57
2023-12-17T02:18:41.917Z,9.02
2023-12-17T02:21:09.003Z,8.98
2023-12-17T02:23:36.283Z,8.27
2023-12-17T02:26:04.739Z,9.52
2023-12-17T02:28:32.231Z,9.07
2023-12-17T02:30:59.415Z,8.95
2023-12-17T02:33:26.880Z,8.57
2023-12-17T02:35:54.204Z,7.85
2023-12-17T02:38:21.340Z,7.03
2023-12-17T02:40:48.764Z,7.15
2023-12-17T02:43:15.858Z,7.60
2023-12-17T02:45:44.191Z,7.13
2023-12-17T02:48:11.871Z,7.80
2023-12-17T02:50:38.997Z,7.82
2023-12-17T02:53:06.019Z,8.23
2023-12-17T02:55:33.138Z,7.68
2023-12-17T02:58:00.325Z,7.88
2023-12-17T03:00:27.372Z,7.72
2023-12-17T03:02:54.663Z,7.47
2023-12-17T03:05:21.815Z,7.47
2023-12-17T03:07:48.831Z,7.05
2023-12-17T03:10:15.927Z,7.82
2023-12-17T03:12:42.981Z,7.57
2023-12-17T03:15:10.479Z,7.57
2023-12-17T03:17:38.600Z,6.68
2023-12-17T03:20:06.906Z,7.00
2023-12-17T03:22:34.046Z,7.40
2023-12-17T03:25:02.412Z,7.88
2023-12-17T03:27:29.783Z,6.68
2023-12-17T03:29:56.960Z,7.60
2023-12-17T03:32:24.203Z,6.38
2023-12-17T03:34:52.225Z,7.57
2023-12-17T03:37:19.574Z,6.22
2023-12-17T03:39:46.683Z,6.75
2023-12-17T03:42:13.829Z,6.47
2023-12-17T03:44:40.833Z,7.15
2023-12-17T03:47:07.928Z,7.32
2023-12-17T03:49:34.977Z,6.25
2023-12-17T03:52:04.689Z,6.50
2023-12-17T03:54:31.788Z,6.45
2023-12-17T03:56:59.339Z,6.68
2023-12-17T03:59:26.479Z,6.97
2023-12-17T04:01:53.986Z,7.07
2023-12-17T04:04:21.080Z,6.78
2023-12-17T04:06:48.121Z,6.45
2023-12-17T04:09:15.106Z,6.85
2023-12-17T04:11:42.356Z,7.03
2023-12-17T04:14:09.542Z,6.60
2023-12-17T04:16:36.486Z,6.28
2023-12-17T04:19:04.814Z,7.00
2023-12-17T04:21:32.712Z,6.72
2023-12-17T04:24:00.121Z,6.25
2023-12-17T04:26:27.377Z,6.70
2023-12-17T04:28:54.420Z,6.57
2023-12-17T04:31:21.711Z,6.85
2023-12-17T04:33:49.083Z,6.05
2023-12-17T04:36:16.687Z,5.88
2023-12-17T04:38:46.583Z,6.15
2023-12-17T04:41:14.065Z,6.80
2023-12-17T04:43:41.060Z,6.93
2023-12-17T04:46:08.382Z,6.43
2023-12-17T04:48:35.658Z,6.53
2023-12-17T04:51:04.000Z,6.28
2023-12-17T04:53:31.102Z,6.40
2023-12-17T04:55:58.133Z,6.63
2023-12-17T04:58:26.432Z,7.32
2023-12-17T05:00:53.568Z,6.45
2023-12-17T05:03:20.627Z,6.38
2023-12-17T05:05:47.951Z,7.00
2023-12-17T05:08:15.267Z,7.10
2023-12-17T05:10:43.220Z,6.55
2023-12-17T05:13:10.401Z,5.88
2023-12-17T05:15:37.493Z,5.90
2023-12-17T05:18:05.033Z,6.38
2023-12-17T05:20:32.231Z,6.47
2023-12-17T05:22:59.336Z,5.95
2023-12-17T05:25:26.950Z,6.18
2023-12-17T05:27:53.950Z,5.90
2023-12-17T05:30:21.389Z,5.50
2023-12-17T05:32:48.578Z,5.80
2023-12-17T05:35:15.680Z,6.20
2023-12-17T05:37:43.490Z,5.97
2023-12-17T05:40:11.024Z,5.80
2023-12-17T05:42:38.625Z,5.40
2023-12-17T05:45:06.221Z,5.72
2023-12-17T05:47:33.658Z,5.50
2023-12-17T05:50:01.006Z,6.18
2023-12-17T05:52:28.342Z,5.95
2023-12-17T05:54:55.394Z,5.22
2023-12-17T05:57:22.595Z,5.60
2023-12-17T05:59:49.921Z,5.03
2023-12-17T06:02:17.016Z,5.50
2023-12-17T06:04:44.303Z,5.75
2023-12-17T06:07:11.425Z,5.47
2023-12-17T06:09:38.512Z,5.13
2023-12-17T06:12:06.078Z,5.20
2023-12-17T06:14:33.177Z,5.00
2023-12-17T06:17:00.243Z,5.32
2023-12-17T06:19:27.363Z,5.20
2023-12-17T06:21:54.426Z,5.15
2023-12-17T06:24:21.490Z,5.07
2023-12-17T06:26:50.137Z,4.97
2023-12-17T06:29:17.311Z,4.65
2023-12-17T06:31:44.648Z,4.65
2023-12-17T06:34:11.703Z,4.90
2023-12-17T06:36:38.839Z,4.15
2023-12-17T06:39:10.672Z,4.70
2023-12-17T06:41:45.341Z,5.05
2023-12-17T06:44:12.456Z,5.15
2023-12-17T06:46:39.394Z,5.05
2023-12-17T06:49:06.532Z,4.80
2023-12-17T06:51:34.266Z,4.63
2023-12-17T06:54:01.415Z,4.78
2023-12-17T06:56:28.716Z,5.00
2023-12-17T06:58:55.655Z,4.82
2023-12-17T07:01:22.786Z,5.10
2023-12-17T07:03:51.400Z,4.53
2023-12-17T07:06:18.569Z,4.50
2023-12-17T07:08:45.555Z,4.40
2023-12-17T07:11:12.887Z,4.85
2023-12-17T07:13:39.889Z,5.72
2023-12-17T07:16:07.507Z,4.47
2023-12-17T07:18:34.653Z,4.78
2023-12-17T07:21:01.870Z,5.32
2023-12-17T07:23:29.140Z,5.55
2023-12-17T07:25:56.348Z,5.18
2023-12-17T07:28:23.384Z,4.93
2023-12-17T07:30:50.606Z,4.80
2023-12-17T07:33:18.051Z,5.03
2023-12-17T07:35:45.384Z,4.88
2023-12-17T07:38:12.491Z,4.72
2023-12-17T07:40:40.600Z,5.35
2023-12-17T07:43:09.629Z,5.22
2023-12-17T07:45:39.617Z,5.53
2023-12-17T07:48:06.813Z,5.57
2023-12-17T07:50:36.764Z,5.13
2023-12-17T07:53:04.487Z,5.35
2023-12-17T07:55:31.578Z,5.22
2023-12-17T07:57:58.488Z,5.22
2023-12-17T08:00:25.613Z,5.85
2023-12-17T08:02:52.683Z,5.68
2023-12-17T08:05:19.997Z,5.18
2023-12-17T08:07:47.209Z,6.10
2023-12-17T08:10:14.259Z,5.00
2023-12-17T08:12:41.485Z,5.68
2023-12-17T08:15:09.057Z,5.68
2023-12-17T08:17:36.142Z,6.47
2023-12-17T08:20:04.042Z,6.82
2023-12-17T08:22:31.116Z,6.15
2023-12-17T08:24:58.189Z,6.50
2023-12-17T08:27:25.336Z,7.40
2023-12-17T08:29:53.111Z,6.50
2023-12-17T08:32:21.813Z,6.38
2023-12-17T08:34:49.366Z,6.43
2023-12-17T08:37:17.712Z,5.70
2023-12-17T08:39:44.864Z,7.05
2023-12-17T08:42:12.030Z,6.82
2023-12-17T08:44:39.261Z,6.82
2023-12-17T08:47:06.402Z,7.15
2023-12-17T08:49:40.809Z,6.90
2023-12-17T08:52:08.008Z,7.10
2023-12-17T08:54:35.104Z,7.05
2023-12-17T08:57:02.171Z,7.10
2023-12-17T08:59:29.639Z,7.78
2023-12-17T09:01:57.057Z,6.90
2023-12-17T09:04:24.087Z,8.27
2023-12-17T09:06:51.574Z,7.38
2023-12-17T09:09:18.623Z,8.00
2023-12-17T09:11:45.711Z,7.65
2023-12-17T09:14:12.820Z,7.55
2023-12-17T09:16:40.500Z,7.85
2023-12-17T09:19:07.669Z,8.23
2023-12-17T09:21:35.008Z,7.57
2023-12-17T09:24:02.297Z,7.00
2023-12-17T09:26:29.453Z,7.30
2023-12-17T09:28:56.487Z,7.53
2023-12-17T09:31:23.659Z,7.95
2023-12-17T09:33:50.793Z,7.68
2023-12-17T09:36:18.233Z,8.13
2023-12-17T09:38:46.001Z,7.30
2023-12-17T09:41:13.950Z,7.60
2023-12-17T09:43:41.343Z,8.88
2023-12-17T09:46:08.850Z,8.93
2023-12-17T09:48:36.719Z,8.63
2023-12-17T09:51:04.703Z,7.60
2023-12-17T09:53:32.546Z,8.77
2023-12-17T09:55:59.591Z,8.02
2023-12-17T09:58:29.822Z,8.25
2023-12-17T10:00:57.192Z,8.07
2023-12-17T10:03:25.330Z,7.88
2023-12-17T10:05:53.742Z,8.70
2023-12-17T10:08:21.728Z,8.80
2023-12-17T10:10:49.051Z,8.80
2023-12-17T10:13:21.375Z,8.93
2023-12-17T10:15:53.406Z,8.32
2023-12-17T10:18:22.238Z,7.90
2023-12-17T10:20:50.490Z,8.68
2023-12-17T10:23:17.762Z,8.20
2023-12-17T10:25:45.453Z,7.88
2023-12-17T10:28:14.121Z,8.35
2023-12-17T10:30:43.723Z,8.50
2023-12-17T10:33:17.367Z,8.95
2023-12-17T10:35:45.474Z,7.50
2023-12-17T10:38:15.274Z,8.55
2023-12-17T10:40:43.435Z,8.52
2023-12-17T10:43:13.891Z,7.85
2023-12-17T10:45:44.476Z,8.57
2023-12-17T10:48:13.757Z,8.75
2023-12-17T10:50:43.031Z,9.50
2023-12-17T10:53:10.537Z,8.93
2023-12-17T10:55:37.675Z,8.60
2023-12-17T10:58:13.885Z,8.20
2023-12-17T11:00:41.553Z,8.52
2023-12-17T11:03:10.894Z,8.40
2023-12-17T11:05:40.525Z,8.23
2023-12-17T11:08:10.176Z,8.00
2023-12-17T11:10:40.527Z,8.55
2023-12-17T11:13:07.720Z,8.63
2023-12-17T11:15:34.703Z,8.82
2023-12-17T11:18:02.274Z,8.23
2023-12-17T11:20:42.080Z,9.15
2023-12-17T11:23:09.157Z,8.65
2023-12-17T11:25:36.275Z,8.82
2023-12-17T11:28:04.474Z,8.18
2023-12-17T11:30:33.472Z,8.35
2023-12-17T11:33:02.634Z,9.38
2023-12-17T11:35:31.223Z,10.35
2023-12-17T11:37:58.552Z,11.45
2023-12-17T11:40:25.818Z,15.55
2023-12-17T11:42:59.930Z,17.15
2023-12-17T11:45:49.394Z,18.48
2023-12-17T11:48:21.489Z,17.17
2023-12-17T11:50:51.199Z,17.42
2023-12-17T11:53:20.205Z,15.20
2023-12-17T11:55:52.752Z,14.05
2023-12-17T11:58:21.504Z,13.10
2023-12-17T12:01:11.038Z,11.70
2023-12-17T12:03:40.369Z,10.88
2023-12-17T12:06:13.464Z,9.25
2023-12-17T12:08:50.280Z,10.20
2023-12-17T12:11:22.265Z,9.75
2023-12-17T12:13:51.859Z,9.77
2023-12-17T12:16:22.056Z,8.30
2023-12-17T12:19:04.557Z,8.00
2023-12-17T12:21:31.960Z,9.97
2023-12-17T12:24:02.692Z,8.52
2023-12-17T12:26:33.749Z,9.63
2023-12-17T12:29:03.008Z,9.52
2023-12-17T12:31:30.757Z,10.77
2023-12-17T12:34:01.074Z,11.35
2023-12-17T12:36:44.574Z,11.60
2023-12-17T12:39:12.005Z,11.73
2023-12-17T12:41:45.393Z,11.50
2023-12-17T12:44:17.756Z,11.70
2023-12-17T12:46:48.731Z,10.93
2023-12-17T12:49:15.922Z,11.07
2023-12-17T12:51:43.213Z,10.38
2023-12-17T12:54:11.000Z,11.43
2023-12-17T12:56:38.546Z,12.20
2023-12-17T12:59:05.891Z,12.23
2023-12-17T13:01:33.053Z,12.98
2023-12-17T13:04:01.657Z,13.52
2023-12-17T13:06:29.484Z,12.57
2023-12-17T13:08:57.197Z,12.93
2023-12-17T13:11:24.694Z,14.30
2023-12-17T13:13:52.530Z,14.27
2023-12-17T13:16:19.856Z,14.45
2023-12-17T13:18:50.534Z,13.85
2023-12-17T13:21:22.225Z,15.05
2023-12-17T13:23:51.359Z,15.13
2023-12-17T13:26:20.151Z,17.38
2023-12-17T13:28:47.506Z,17.35
2023-12-17T13:31:15.618Z,18.17
2023-12-17T13:33:43.143Z,17.83
2023-12-17T13:36:12.289Z,19.02
2023-12-17T13:38:40.706Z,18.98
2023-12-17T13:42:10.364Z,18.50
2023-12-17T13:44:37.647Z,18.83
2023-12-17T13:47:04.803Z,17.55
2023-12-17T13:49:37.152Z,17.40
2023-12-17T13:54:32.691Z,16.98
2023-12-17T13:57:00.189Z,17.17
2023-12-17T13:59:28.130Z,18.40
2023-12-17T14:01:55.132Z,16.83
2023-12-17T14:04:22.714Z,17.92
2023-12-17T14:06:51.258Z,17.63
2023-12-17T14:09:18.483Z,18.90
2023-12-17T14:11:48.412Z,19.13
2023-12-17T14:14:15.776Z,19.35
2023-12-17T14:16:43.467Z,19.30
2023-12-17T14:19:11.568Z,18.77
2023-12-17T14:21:39.846Z,19.13
2023-12-17T14:24:08.290Z,17.95
2023-12-17T14:26:35.368Z,18.90
2023-12-17T14:29:03.461Z,18.67
2023-12-17T14:31:31.685Z,19.63
2023-12-17T14:34:04.202Z,19.63
2023-12-17T14:36:34.225Z,19.20
2023-12-17T14:39:01.927Z,20.52
2023-12-17T14:41:29.088Z,21.20
2023-12-17T14:43:57.828Z,20.20
2023-12-17T14:46:24.931Z,20.13
2023-12-17T14:48:52.813Z,19.73
2023-12-17T14:51:20.530Z,18.95
2023-12-17T14:53:53.488Z,18.08
2023-12-17T14:56:25.533Z,17.00
2023-12-17T14:58:58.016Z,18.38
2023-12-17T15:01:31.803Z,16.88
2023-12-17T15:04:02.345Z,17.75
2023-12-17T15:06:29.679Z,18.38
2023-12-17T15:08:58.890Z,18.33
2023-12-17T15:11:27.448Z,17.77
2023-12-17T15:13:58.469Z,16.63
2023-12-17T15:16:26.130Z,17.52
2023-12-17T15:18:53.482Z,16.88
2023-12-17T15:21:23.349Z,16.00
2023-12-17T15:23:50.389Z,16.55
2023-12-17T15:26:17.768Z,14.95
2023-12-17T15:28:44.914Z,14.05
2023-12-17T15:31:15.928Z,15.57
2023-12-17T15:33:43.440Z,13.82
2023-12-17T15:36:10.782Z,14.80
2023-12-17T15:38:41.329Z,13.50
2023-12-17T15:41:09.192Z,14.02
2023-12-17T15:43:36.289Z,13.32
2023-12-17T15:46:04.106Z,13.63
2023-12-17T15:48:31.445Z,12.57
2023-12-17T15:50:59.121Z,13.23
2023-12-17T15:53:26.250Z,12.30
2023-12-17T15:55:53.329Z,12.75
2023-12-17T15:58:21.653Z,12.63
2023-12-17T16:00:49.042Z,12.93
2023-12-17T16:03:16.310Z,12.00
2023-12-17T16:05:44.976Z,12.07
2023-12-17T16:08:12.083Z,11.63
2023-12-17T16:10:41.991Z,12.15
2023-12-17T16:13:09.995Z,11.80
2023-12-17T16:15:38.815Z,11.52
2023-12-17T16:18:06.433Z,10.57
2023-12-17T16:20:35.113Z,11.30
2023-12-17T16:23:02.446Z,11.98
2023-12-17T16:25:30.345Z,11.95
2023-12-17T16:27:58.468Z,11.38
2023-12-17T16:30:25.548Z,11.50
2023-12-17T16:32:52.795Z,11.32
2023-12-17T16:35:19.953Z,11.80
2023-12-17T16:37:47.285Z,11.77
2023-12-17T16:40:14.332Z,11.50
2023-12-17T16:42:41.636Z,11.52
2023-12-17T16:45:10.834Z,10.52
2023-12-17T16:47:38.513Z,11.45
2023-12-17T16:50:06.890Z,11.50
2023-12-17T16:52:34.340Z,12.00
2023-12-17T16:55:01.752Z,11.48
2023-12-17T16:57:29.234Z,11.65
2023-12-17T16:59:57.184Z,11.63
2023-12-17T17:02:24.518Z,11.02
2023-12-17T17:04:51.594Z,11.82
2023-12-17T17:07:19.330Z,11.30
2023-12-17T17:09:47.821Z,11.32
2023-12-17T17:12:14.803Z,10.55
2023-12-17T17:14:41.865Z,10.25
2023-12-17T17:17:11.469Z,10.18
2023-12-17T17:19:40.963Z,10.82
2023-12-17T17:22:08.801Z,10.18
2023-12-17T17:24:35.968Z,10.30
2023-12-17T17:27:04.494Z,11.60
2023-12-17T17:29:31.647Z,10.50
2023-12-17T17:31:58.633Z,11.45
2023-12-17T17:34:26.169Z,10.98
2023-12-17T17:36:54.268Z,11.20
2023-12-17T17:39:22.354Z,10.57
2023-12-17T17:41:51.664Z,10.52
2023-12-17T17:44:20.679Z,11.07
2023-12-17T17:46:47.696Z,11.68
2023-12-17T17:49:15.041Z,10.85
2023-12-17T17:51:42.510Z,11.98
2023-12-17T17:54:11.550Z,11.27
2023-12-17T17:56:38.855Z,10.93
2023-12-17T17:59:05.960Z,10.77
2023-12-17T18:01:35.990Z,9.90
2023-12-17T18:04:06.577Z,10.88
2023-12-17T18:06:34.292Z,11.45
2023-12-17T18:09:01.358Z,10.80
2023-12-17T18:11:28.488Z,10.60
2023-12-17T18:13:56.328Z,11.30
2023-12-17T18:16:23.652Z,11.52
2023-12-17T18:18:52.440Z,11.60
2023-12-17T18:21:22.291Z,11.50
2023-12-17T18:23:50.762Z,11.13
2023-12-17T18:26:25.116Z,10.55
2023-12-17T18:28:54.660Z,12.10
2023-12-17T18:31:21.851Z,11.95
2023-12-17T18:33:49.160Z,11.38
2023-12-17T18:36:16.394Z,12.10
2023-12-17T18:38:46.629Z,13.13
2023-12-17T18:41:19.723Z,11.82
2023-12-17T18:43:47.789Z,12.00
2023-12-17T18:46:15.993Z,11.98
2023-12-17T18:48:44.412Z,12.02
2023-12-17T18:51:11.872Z,12.85
2023-12-17T18:53:48.073Z,12.90
2023-12-17T18:56:15.384Z,11.98
2023-12-17T18:58:42.531Z,12.43
2023-12-17T19:01:10.956Z,13.20
2023-12-17T19:03:38.161Z,11.88
2023-12-17T19:06:05.599Z,11.73
2023-12-17T19:08:32.572Z,12.07
2023-12-17T19:11:01.263Z,11.93
2023-12-17T19:13:32.442Z,12.25
2023-12-17T19:15:59.767Z,12.75
2023-12-17T19:18:26.796Z,11.45
2023-12-17T19:20:53.918Z,12.68
2023-12-17T19:23:21.179Z,12.13
2023-12-17T19:25:48.232Z,12.13
2023-12-17T19:28:15.343Z,13.20
2023-12-17T19:30:42.429Z,11.50
2023-12-17T19:33:12.579Z,12.35
2023-12-17T19:35:41.916Z,13.30
2023-12-17T19:38:10.019Z,12.38
2023-12-17T19:40:37.096Z,13.15
2023-12-17T19:43:04.285Z,12.00
2023-12-17T19:45:32.398Z,12.52
2023-12-17T19:48:26.181Z,12.60
2023-12-17T19:50:53.502Z,12.93
2023-12-17T19:53:22.529Z,12.48
2023-12-17T19:55:50.465Z,11.48
2023-12-17T19:58:17.591Z,11.77
2023-12-17T20:00:45.441Z,11.75
2023-12-17T20:03:13.049Z,12.52
2023-12-17T20:05:41.195Z,12.73
2023-12-17T20:08:09.521Z,12.32
2023-12-17T20:10:38.022Z,11.45
2023-12-17T20:13:05.329Z,11.93
2023-12-17T20:15:32.691Z,11.90
2023-12-17T20:17:59.964Z,12.07
2023-12-17T20:20:29.263Z,12.90
2023-12-17T20:22:57.636Z,12.57
2023-12-17T20:25:25.270Z,10.82
2023-12-17T20:27:54.079Z,11.88
2023-12-17T20:30:21.212Z,11.25
2023-12-17T20:32:48.456Z,10.82
2023-12-17T20:35:16.221Z,10.80
2023-12-17T20:37:43.924Z,10.45
2023-12-17T20:40:11.397Z,10.32
2023-12-17T20:42:40.584Z,10.38
2023-12-17T20:45:08.997Z,9.88
2023-12-17T20:47:37.313Z,10.13
2023-12-17T20:50:05.988Z,10.32
2023-12-17T20:52:33.204Z,9.27
2023-12-17T20:55:06.706Z,10.15
2023-12-17T20:57:34.939Z,9.75
2023-12-17T21:00:02.258Z,10.35
2023-12-17T21:02:29.422Z,10.25
2023-12-17T21:04:56.770Z,9.10
2023-12-17T21:07:23.940Z,9.73
2023-12-17T21:09:51.796Z,9.77
2023-12-17T21:12:18.830Z,9.10
2023-12-17T21:14:45.887Z,9.32
2023-12-17T21:17:13.009Z,9.18
2023-12-17T21:19:40.256Z,9.90
2023-12-17T21:22:07.530Z,8.88
2023-12-17T21:24:35.972Z,9.52
2023-12-17T21:27:03.871Z,8.57
2023-12-17T21:29:31.135Z,9.20
2023-12-17T21:31:58.191Z,8.85
2023-12-17T21:34:25.439Z,8.50
2023-12-17T21:36:52.593Z,8.82
2023-12-17T21:39:19.754Z,8.55
2023-12-17T21:41:48.213Z,8.60
2023-12-17T21:44:15.411Z,9.65
2023-12-17T21:46:42.446Z,9.15
2023-12-17T21:49:09.454Z,9.50
2023-12-17T21:51:36.643Z,9.25
2023-12-17T21:54:10.408Z,8.75
2023-12-17T21:56:38.252Z,8.40
2023-12-17T21:59:05.463Z,8.77
2023-12-17T22:01:32.616Z,9.27
2023-12-17T22:03:59.790Z,9.30
2023-12-17T22:06:26.848Z,8.65
2023-12-17T22:09:00.654Z,8.77
2023-12-17T22:11:30.635Z,8.90
2023-12-17T22:13:57.758Z,9.45
2023-12-17T22:16:24.652Z,8.77
2023-12-17T22:18:52.282Z,9.27
2023-12-17T22:21:20.441Z,8.50
2023-12-17T22:23:47.616Z,8.68
2023-12-17T22:26:15.194Z,9.88
2023-12-17T22:28:42.429Z,9.05
2023-12-17T22:31:09.628Z,8.07
2023-12-17T22:33:36.956Z,8.23
2023-12-17T22:36:04.579Z,8.70
2023-12-17T22:38:31.759Z,9.07
2023-12-17T22:40:59.156Z,8.98
2023-12-17T22:43:26.276Z,8.98
2023-12-17T22:45:53.722Z,8.65
2023-12-17T22:48:21.419Z,9.15
2023-12-17T22:50:48.652Z,8.93
2023-12-17T22:53:16.608Z,10.40
2023-12-17T22:55:44.044Z,9.50
2023-12-17T22:58:11.814Z,9.38
2023-12-17T23:00:39.042Z,9.52
2023-12-17T23:03:06.103Z,10.23
2023-12-17T23:05:33.453Z,9.35
2023-12-17T23:08:00.376Z,10.23
2023-12-17T23:10:28.401Z,10.50
2023-12-17T23:12:55.815Z,10.05
2023-12-17T23:15:23.033Z,9.35
2023-12-17T23:17:50.146Z,9.85
2023-12-17T23:20:17.350Z,10.45
2023-12-17T23:22:44.545Z,10.88
2023-12-17T23:25:14.757Z,11.00
2023-12-17T23:27:42.536Z,11.43
2023-12-17T23:30:10.042Z,10.80
2023-12-17T23:32:37.237Z,11.18
2023-12-17T23:35:04.486Z,11.02
2023-12-17T23:37:31.501Z,11.85
2023-12-17T23:39:58.424Z,10.67
2023-12-17T23:42:26.682Z,11.23
2023-12-17T23:44:53.825Z,11.65
2023-12-17T23:47:20.917Z,10.60
2023-12-17T23:49:48.430Z,10.48
2023-12-17T23:52:15.464Z,11.57
2023-12-17T23:54:42.523Z,11.48
2023-12-17T23:57:10.037Z,11.57
2023-12-17T23:59:37.029Z,11.73
